sensor_id;sensor_type;location;lat;lon;timestamp;temperature;humidity
38938;DHT22;24727;51.974;20.868;2023-04-25T00:00:10;11.00;1.00
38938;DHT22;24727;51.974;20.868;2023-04-25T00:02:37;11.00;1.00
38938;DHT22;24727;51.974;20.868;2023-04-25T00:05:03;11.00;1.00
38938;DHT22;24727;51.974;20.868;2023-04-25T00:07:31;11.00;1.00
38938;DHT22;24727;51.974;20.868;2023-04-25T00:09:58;10.90;1.00
38938;DHT22;24727;51.974;20.868;2023-04-25T00:12:24;10.80;1.00
38938;DHT22;24727;51.974;20.868;2023-04-25T00:14:52;10.70;1.00
38938;DHT22;24727;51.974;20.868;2023-04-25T00:17:18;10.40;1.00
38938;DHT22;24727;51.974;20.868;2023-04-25T00:19:45;10.30;1.00
38938;DHT22;24727;51.974;20.868;2023-04-25T00:22:12;10.20;1.00
38938;DHT22;24727;51.974;20.868;2023-04-25T00:24:38;10.30;1.00
38938;DHT22;24727;51.974;20.868;2023-04-25T00:27:11;10.30;1.00
38938;DHT22;24727;51.974;20.868;2023-04-25T00:29:36;10.30;1.00
38938;DHT22;24727;51.974;20.868;2023-04-25T00:32:02;10.30;1.00
38938;DHT22;24727;51.974;20.868;2023-04-25T00:34:30;10.40;1.00
38938;DHT22;24727;51.974;20.868;2023-04-25T00:36:56;10.40;1.00
38938;DHT22;24727;51.974;20.868;2023-04-25T00:39:22;10.40;1.00
38938;DHT22;24727;51.974;20.868;2023-04-25T00:41:50;10.40;1.00
38938;DHT22;24727;51.974;20.868;2023-04-25T00:44:19;10.40;1.00
38938;DHT22;24727;51.974;20.868;2023-04-25T00:46:47;10.40;1.00
38938;DHT22;24727;51.974;20.868;2023-04-25T00:49:13;10.50;1.00
38938;DHT22;24727;51.974;20.868;2023-04-25T00:51:43;10.50;1.00
38938;DHT22;24727;51.974;20.868;2023-04-25T00:54:15;10.60;1.00
38938;DHT22;24727;51.974;20.868;2023-04-25T00:56:42;10.50;1.00
38938;DHT22;24727;51.974;20.868;2023-04-25T00:59:09;10.50;1.00
38938;DHT22;24727;51.974;20.868;2023-04-25T01:01:35;10.40;1.00
38938;DHT22;24727;51.974;20.868;2023-04-25T01:04:02;10.30;1.00
38938;DHT22;24727;51.974;20.868;2023-04-25T01:06:29;10.30;1.00
38938;DHT22;24727;51.974;20.868;2023-04-25T01:08:56;10.30;1.00
38938;DHT22;24727;51.974;20.868;2023-04-25T01:11:22;10.30;1.00
38938;DHT22;24727;51.974;20.868;2023-04-25T01:13:50;10.30;1.00
38938;DHT22;24727;51.974;20.868;2023-04-25T01:16:17;10.20;1.00
38938;DHT22;24727;51.974;20.868;2023-04-25T01:18:46;10.20;1.00
38938;DHT22;24727;51.974;20.868;2023-04-25T01:21:13;10.10;1.00
38938;DHT22;24727;51.974;20.868;2023-04-25T01:23:40;10.00;1.00
38938;DHT22;24727;51.974;20.868;2023-04-25T01:26:09;10.20;1.00
38938;DHT22;24727;51.974;20.868;2023-04-25T01:28:37;10.20;1.00
38938;DHT22;24727;51.974;20.868;2023-04-25T01:31:04;10.30;1.00
38938;DHT22;24727;51.974;20.868;2023-04-25T01:33:31;10.30;1.60
38938;DHT22;24727;51.974;20.868;2023-04-25T01:35:57;10.40;13.90
38938;DHT22;24727;51.974;20.868;2023-04-25T01:38:24;10.40;17.00
38938;DHT22;24727;51.974;20.868;2023-04-25T01:40:51;10.50;19.50
38938;DHT22;24727;51.974;20.868;2023-04-25T01:43:19;10.60;30.20
38938;DHT22;24727;51.974;20.868;2023-04-25T01:45:46;10.60;34.40
38938;DHT22;24727;51.974;20.868;2023-04-25T01:48:14;10.70;32.70
38938;DHT22;24727;51.974;20.868;2023-04-25T01:50:41;10.70;28.10
38938;DHT22;24727;51.974;20.868;2023-04-25T01:53:09;10.70;21.60
38938;DHT22;24727;51.974;20.868;2023-04-25T01:55:36;10.70;23.50
38938;DHT22;24727;51.974;20.868;2023-04-25T01:58:03;10.70;21.90
38938;DHT22;24727;51.974;20.868;2023-04-25T02:00:29;10.70;20.80
38938;DHT22;24727;51.974;20.868;2023-04-25T02:02:58;10.80;17.40
38938;DHT22;24727;51.974;20.868;2023-04-25T02:05:24;10.70;16.50
38938;DHT22;24727;51.974;20.868;2023-04-25T02:07:50;10.70;16.70
38938;DHT22;24727;51.974;20.868;2023-04-25T02:10:16;10.70;17.50
38938;DHT22;24727;51.974;20.868;2023-04-25T02:12:43;10.70;17.90
38938;DHT22;24727;51.974;20.868;2023-04-25T02:15:09;10.60;18.60
38938;DHT22;24727;51.974;20.868;2023-04-25T02:17:36;10.60;18.10
38938;DHT22;24727;51.974;20.868;2023-04-25T02:20:03;10.70;17.10
38938;DHT22;24727;51.974;20.868;2023-04-25T02:22:30;10.70;19.00
38938;DHT22;24727;51.974;20.868;2023-04-25T02:24:56;10.70;17.60
38938;DHT22;24727;51.974;20.868;2023-04-25T02:27:22;10.60;17.20
38938;DHT22;24727;51.974;20.868;2023-04-25T02:29:48;10.70;18.80
38938;DHT22;24727;51.974;20.868;2023-04-25T02:32:14;10.60;21.10
38938;DHT22;24727;51.974;20.868;2023-04-25T02:34:40;10.60;23.00
38938;DHT22;24727;51.974;20.868;2023-04-25T02:37:06;10.60;22.20
38938;DHT22;24727;51.974;20.868;2023-04-25T02:39:32;10.60;23.50
38938;DHT22;24727;51.974;20.868;2023-04-25T02:41:58;10.60;22.60
38938;DHT22;24727;51.974;20.868;2023-04-25T02:44:24;10.60;18.90
38938;DHT22;24727;51.974;20.868;2023-04-25T02:46:51;10.60;17.80
38938;DHT22;24727;51.974;20.868;2023-04-25T02:49:18;10.70;17.30
38938;DHT22;24727;51.974;20.868;2023-04-25T02:51:45;10.60;16.30
38938;DHT22;24727;51.974;20.868;2023-04-25T02:54:17;10.60;17.60
38938;DHT22;24727;51.974;20.868;2023-04-25T02:56:43;10.60;17.60
38938;DHT22;24727;51.974;20.868;2023-04-25T02:59:09;10.60;16.40
38938;DHT22;24727;51.974;20.868;2023-04-25T03:01:34;10.60;14.60
38938;DHT22;24727;51.974;20.868;2023-04-25T03:04:00;10.60;15.00
38938;DHT22;24727;51.974;20.868;2023-04-25T03:06:27;10.60;15.50
38938;DHT22;24727;51.974;20.868;2023-04-25T03:08:54;10.60;13.70
38938;DHT22;24727;51.974;20.868;2023-04-25T03:11:20;10.60;12.40
38938;DHT22;24727;51.974;20.868;2023-04-25T03:13:48;10.60;8.30
38938;DHT22;24727;51.974;20.868;2023-04-25T03:16:15;10.60;5.10
38938;DHT22;24727;51.974;20.868;2023-04-25T03:18:43;10.60;3.90
38938;DHT22;24727;51.974;20.868;2023-04-25T03:21:09;10.70;4.00
38938;DHT22;24727;51.974;20.868;2023-04-25T03:23:34;10.60;2.70
38938;DHT22;24727;51.974;20.868;2023-04-25T03:26:09;10.60;1.40
38938;DHT22;24727;51.974;20.868;2023-04-25T03:28:35;10.60;3.90
38938;DHT22;24727;51.974;20.868;2023-04-25T03:31:02;10.60;6.20
38938;DHT22;24727;51.974;20.868;2023-04-25T03:33:28;10.60;5.80
38938;DHT22;24727;51.974;20.868;2023-04-25T03:35:55;10.60;4.40
38938;DHT22;24727;51.974;20.868;2023-04-25T03:38:21;10.60;4.20
38938;DHT22;24727;51.974;20.868;2023-04-25T03:40:47;10.60;4.50
38938;DHT22;24727;51.974;20.868;2023-04-25T03:43:15;10.60;6.20
38938;DHT22;24727;51.974;20.868;2023-04-25T03:45:41;10.60;8.00
38938;DHT22;24727;51.974;20.868;2023-04-25T03:48:07;10.60;9.80
38938;DHT22;24727;51.974;20.868;2023-04-25T03:50:33;10.50;14.50
38938;DHT22;24727;51.974;20.868;2023-04-25T03:53:05;10.50;19.60
38938;DHT22;24727;51.974;20.868;2023-04-25T03:55:31;10.50;22.00
38938;DHT22;24727;51.974;20.868;2023-04-25T03:57:58;10.50;24.00
38938;DHT22;24727;51.974;20.868;2023-04-25T04:00:26;10.50;30.20
38938;DHT22;24727;51.974;20.868;2023-04-25T04:02:53;10.40;36.40
38938;DHT22;24727;51.974;20.868;2023-04-25T04:05:19;10.40;34.90
38938;DHT22;24727;51.974;20.868;2023-04-25T04:07:45;10.40;36.40
38938;DHT22;24727;51.974;20.868;2023-04-25T04:10:13;10.40;39.50
38938;DHT22;24727;51.974;20.868;2023-04-25T04:12:39;10.40;48.70
38938;DHT22;24727;51.974;20.868;2023-04-25T04:15:08;10.30;56.20
38938;DHT22;24727;51.974;20.868;2023-04-25T04:17:36;10.30;61.60
38938;DHT22;24727;51.974;20.868;2023-04-25T04:20:03;10.30;65.50
38938;DHT22;24727;51.974;20.868;2023-04-25T04:22:29;10.30;66.70
38938;DHT22;24727;51.974;20.868;2023-04-25T04:24:57;10.20;65.80
38938;DHT22;24727;51.974;20.868;2023-04-25T04:27:23;10.20;66.80
38938;DHT22;24727;51.974;20.868;2023-04-25T04:29:50;10.20;68.50
38938;DHT22;24727;51.974;20.868;2023-04-25T04:32:18;10.10;69.50
38938;DHT22;24727;51.974;20.868;2023-04-25T04:34:44;10.10;71.70
38938;DHT22;24727;51.974;20.868;2023-04-25T04:37:10;10.10;73.90
38938;DHT22;24727;51.974;20.868;2023-04-25T04:39:40;10.10;75.90
38938;DHT22;24727;51.974;20.868;2023-04-25T04:42:06;10.00;77.80
38938;DHT22;24727;51.974;20.868;2023-04-25T04:44:40;10.00;79.30
38938;DHT22;24727;51.974;20.868;2023-04-25T04:47:06;9.90;80.50
38938;DHT22;24727;51.974;20.868;2023-04-25T04:49:33;9.90;81.70
38938;DHT22;24727;51.974;20.868;2023-04-25T04:51:59;9.90;82.00
38938;DHT22;24727;51.974;20.868;2023-04-25T04:54:26;9.90;82.10
38938;DHT22;24727;51.974;20.868;2023-04-25T04:56:52;9.90;83.30
38938;DHT22;24727;51.974;20.868;2023-04-25T04:59:18;9.80;83.20
38938;DHT22;24727;51.974;20.868;2023-04-25T05:01:44;9.80;83.00
38938;DHT22;24727;51.974;20.868;2023-04-25T05:04:17;9.80;83.20
38938;DHT22;24727;51.974;20.868;2023-04-25T05:06:43;9.80;83.30
38938;DHT22;24727;51.974;20.868;2023-04-25T05:09:09;9.80;82.10
38938;DHT22;24727;51.974;20.868;2023-04-25T05:11:36;9.80;83.50
38938;DHT22;24727;51.974;20.868;2023-04-25T05:14:02;9.80;84.00
38938;DHT22;24727;51.974;20.868;2023-04-25T05:16:28;9.80;83.80
38938;DHT22;24727;51.974;20.868;2023-04-25T05:18:54;9.80;84.10
38938;DHT22;24727;51.974;20.868;2023-04-25T05:21:21;9.70;82.40
38938;DHT22;24727;51.974;20.868;2023-04-25T05:23:47;9.70;83.60
38938;DHT22;24727;51.974;20.868;2023-04-25T05:26:15;9.70;83.20
38938;DHT22;24727;51.974;20.868;2023-04-25T05:28:42;9.70;83.50
38938;DHT22;24727;51.974;20.868;2023-04-25T05:31:09;9.70;84.10
38938;DHT22;24727;51.974;20.868;2023-04-25T05:33:36;9.60;85.00
38938;DHT22;24727;51.974;20.868;2023-04-25T05:36:02;9.60;85.40
38938;DHT22;24727;51.974;20.868;2023-04-25T05:38:28;9.60;85.90
38938;DHT22;24727;51.974;20.868;2023-04-25T05:40:54;9.50;86.40
38938;DHT22;24727;51.974;20.868;2023-04-25T05:43:19;9.50;86.30
38938;DHT22;24727;51.974;20.868;2023-04-25T05:45:46;9.50;88.10
38938;DHT22;24727;51.974;20.868;2023-04-25T05:48:14;9.50;87.70
38938;DHT22;24727;51.974;20.868;2023-04-25T05:50:40;9.50;87.80
38938;DHT22;24727;51.974;20.868;2023-04-25T05:53:08;9.50;88.10
38938;DHT22;24727;51.974;20.868;2023-04-25T05:55:35;9.50;89.00
38938;DHT22;24727;51.974;20.868;2023-04-25T05:58:01;9.50;88.20
38938;DHT22;24727;51.974;20.868;2023-04-25T06:00:27;9.50;88.20
38938;DHT22;24727;51.974;20.868;2023-04-25T06:02:53;9.50;88.40
38938;DHT22;24727;51.974;20.868;2023-04-25T06:05:20;9.40;88.70
38938;DHT22;24727;51.974;20.868;2023-04-25T06:07:46;9.40;89.20
38938;DHT22;24727;51.974;20.868;2023-04-25T06:10:12;9.30;89.20
38938;DHT22;24727;51.974;20.868;2023-04-25T06:12:38;9.30;90.00
38938;DHT22;24727;51.974;20.868;2023-04-25T06:15:05;9.20;89.70
38938;DHT22;24727;51.974;20.868;2023-04-25T06:17:31;9.30;89.80
38938;DHT22;24727;51.974;20.868;2023-04-25T06:19:58;9.20;89.60
38938;DHT22;24727;51.974;20.868;2023-04-25T06:22:24;9.20;89.00
38938;DHT22;24727;51.974;20.868;2023-04-25T06:24:50;9.20;89.10
38938;DHT22;24727;51.974;20.868;2023-04-25T06:27:17;9.20;89.30
38938;DHT22;24727;51.974;20.868;2023-04-25T06:29:44;9.20;89.90
38938;DHT22;24727;51.974;20.868;2023-04-25T06:32:10;9.20;90.20
38938;DHT22;24727;51.974;20.868;2023-04-25T06:34:36;9.20;90.70
38938;DHT22;24727;51.974;20.868;2023-04-25T06:37:01;9.20;91.00
38938;DHT22;24727;51.974;20.868;2023-04-25T06:39:28;9.10;90.60
38938;DHT22;24727;51.974;20.868;2023-04-25T06:41:54;9.20;90.50
38938;DHT22;24727;51.974;20.868;2023-04-25T06:44:21;9.20;90.80
38938;DHT22;24727;51.974;20.868;2023-04-25T06:46:50;9.10;89.50
38938;DHT22;24727;51.974;20.868;2023-04-25T06:49:16;9.10;88.50
38938;DHT22;24727;51.974;20.868;2023-04-25T06:51:42;9.10;88.90
38938;DHT22;24727;51.974;20.868;2023-04-25T06:54:08;9.10;89.40
38938;DHT22;24727;51.974;20.868;2023-04-25T06:56:35;9.10;89.40
38938;DHT22;24727;51.974;20.868;2023-04-25T06:59:02;9.10;89.20
38938;DHT22;24727;51.974;20.868;2023-04-25T07:01:30;9.20;89.50
38938;DHT22;24727;51.974;20.868;2023-04-25T07:03:57;9.10;88.20
38938;DHT22;24727;51.974;20.868;2023-04-25T07:06:25;9.10;88.90
38938;DHT22;24727;51.974;20.868;2023-04-25T07:08:52;9.10;88.60
38938;DHT22;24727;51.974;20.868;2023-04-25T07:11:19;9.00;87.90
38938;DHT22;24727;51.974;20.868;2023-04-25T07:13:46;9.10;88.30
38938;DHT22;24727;51.974;20.868;2023-04-25T07:16:12;9.00;87.30
38938;DHT22;24727;51.974;20.868;2023-04-25T07:18:40;8.90;86.40
38938;DHT22;24727;51.974;20.868;2023-04-25T07:21:05;8.90;87.70
38938;DHT22;24727;51.974;20.868;2023-04-25T07:23:31;8.90;87.50
38938;DHT22;24727;51.974;20.868;2023-04-25T07:25:58;8.90;88.40
38938;DHT22;24727;51.974;20.868;2023-04-25T07:28:25;9.00;88.50
38938;DHT22;24727;51.974;20.868;2023-04-25T07:30:51;9.10;88.80
38938;DHT22;24727;51.974;20.868;2023-04-25T07:33:24;9.10;88.80
38938;DHT22;24727;51.974;20.868;2023-04-25T07:35:50;9.00;87.60
38938;DHT22;24727;51.974;20.868;2023-04-25T07:38:17;9.00;87.30
38938;DHT22;24727;51.974;20.868;2023-04-25T07:40:43;9.00;86.70
38938;DHT22;24727;51.974;20.868;2023-04-25T07:43:10;9.00;87.20
38938;DHT22;24727;51.974;20.868;2023-04-25T07:45:39;8.90;86.30
38938;DHT22;24727;51.974;20.868;2023-04-25T07:48:05;8.80;86.20
38938;DHT22;24727;51.974;20.868;2023-04-25T07:50:31;8.60;84.10
38938;DHT22;24727;51.974;20.868;2023-04-25T07:52:59;8.60;85.50
38938;DHT22;24727;51.974;20.868;2023-04-25T07:55:26;8.50;85.30
38938;DHT22;24727;51.974;20.868;2023-04-25T07:57:52;8.60;86.20
38938;DHT22;24727;51.974;20.868;2023-04-25T08:00:25;8.60;87.00
38938;DHT22;24727;51.974;20.868;2023-04-25T08:02:50;8.50;85.50
38938;DHT22;24727;51.974;20.868;2023-04-25T08:05:18;8.50;85.50
38938;DHT22;24727;51.974;20.868;2023-04-25T08:07:44;8.50;85.50
38938;DHT22;24727;51.974;20.868;2023-04-25T08:10:10;8.50;84.10
38938;DHT22;24727;51.974;20.868;2023-04-25T08:12:36;8.50;83.70
38938;DHT22;24727;51.974;20.868;2023-04-25T08:15:04;8.50;84.50
38938;DHT22;24727;51.974;20.868;2023-04-25T08:17:31;8.60;85.90
38938;DHT22;24727;51.974;20.868;2023-04-25T08:19:58;8.60;85.80
38938;DHT22;24727;51.974;20.868;2023-04-25T08:22:24;8.50;86.20
38938;DHT22;24727;51.974;20.868;2023-04-25T08:24:51;8.60;86.10
38938;DHT22;24727;51.974;20.868;2023-04-25T08:27:19;8.60;86.90
38938;DHT22;24727;51.974;20.868;2023-04-25T08:29:47;8.50;86.00
38938;DHT22;24727;51.974;20.868;2023-04-25T08:32:14;8.60;86.40
38938;DHT22;24727;51.974;20.868;2023-04-25T08:34:40;8.60;85.30
38938;DHT22;24727;51.974;20.868;2023-04-25T08:37:08;8.60;85.10
38938;DHT22;24727;51.974;20.868;2023-04-25T08:39:36;8.60;84.70
38938;DHT22;24727;51.974;20.868;2023-04-25T08:42:07;8.70;85.90
38938;DHT22;24727;51.974;20.868;2023-04-25T08:44:36;8.70;85.60
38938;DHT22;24727;51.974;20.868;2023-04-25T08:47:06;8.80;86.40
38938;DHT22;24727;51.974;20.868;2023-04-25T08:49:33;8.80;86.20
38938;DHT22;24727;51.974;20.868;2023-04-25T08:52:04;8.70;84.80
38938;DHT22;24727;51.974;20.868;2023-04-25T08:54:32;8.70;83.50
38938;DHT22;24727;51.974;20.868;2023-04-25T08:57:02;8.70;84.70
38938;DHT22;24727;51.974;20.868;2023-04-25T08:59:30;8.70;83.80
38938;DHT22;24727;51.974;20.868;2023-04-25T09:01:57;8.80;84.80
38938;DHT22;24727;51.974;20.868;2023-04-25T09:04:23;8.80;85.30
38938;DHT22;24727;51.974;20.868;2023-04-25T09:06:50;8.80;83.00
38938;DHT22;24727;51.974;20.868;2023-04-25T09:09:16;8.80;83.80
38938;DHT22;24727;51.974;20.868;2023-04-25T09:11:42;8.70;83.00
38938;DHT22;24727;51.974;20.868;2023-04-25T09:14:20;8.70;83.20
38938;DHT22;24727;51.974;20.868;2023-04-25T09:19:30;8.70;83.10
38938;DHT22;24727;51.974;20.868;2023-04-25T09:22:00;8.80;83.70
38938;DHT22;24727;51.974;20.868;2023-04-25T09:24:46;8.80;83.40
38938;DHT22;24727;51.974;20.868;2023-04-25T09:27:19;8.80;83.00
38938;DHT22;24727;51.974;20.868;2023-04-25T09:29:46;8.80;79.50
38938;DHT22;24727;51.974;20.868;2023-04-25T09:32:16;8.70;79.30
38938;DHT22;24727;51.974;20.868;2023-04-25T09:34:48;8.70;80.40
38938;DHT22;24727;51.974;20.868;2023-04-25T09:37:33;8.70;81.60
38938;DHT22;24727;51.974;20.868;2023-04-25T09:40:05;8.80;83.00
38938;DHT22;24727;51.974;20.868;2023-04-25T09:42:33;8.80;83.50
38938;DHT22;24727;51.974;20.868;2023-04-25T09:45:01;8.80;83.50
38938;DHT22;24727;51.974;20.868;2023-04-25T09:47:30;8.80;82.70
38938;DHT22;24727;51.974;20.868;2023-04-25T09:49:58;8.80;80.70
38938;DHT22;24727;51.974;20.868;2023-04-25T09:52:26;8.80;80.20
38938;DHT22;24727;51.974;20.868;2023-04-25T09:54:53;8.80;81.80
38938;DHT22;24727;51.974;20.868;2023-04-25T09:57:23;8.80;80.60
38938;DHT22;24727;51.974;20.868;2023-04-25T09:59:54;8.80;81.70
38938;DHT22;24727;51.974;20.868;2023-04-25T10:02:23;8.80;81.50
38938;DHT22;24727;51.974;20.868;2023-04-25T10:04:54;8.90;81.60
38938;DHT22;24727;51.974;20.868;2023-04-25T10:07:26;8.90;82.70
38938;DHT22;24727;51.974;20.868;2023-04-25T10:09:59;8.80;80.50
38938;DHT22;24727;51.974;20.868;2023-04-25T10:12:32;8.80;78.70
38938;DHT22;24727;51.974;20.868;2023-04-25T10:14:59;8.90;77.90
38938;DHT22;24727;51.974;20.868;2023-04-25T10:17:26;8.90;77.90
38938;DHT22;24727;51.974;20.868;2023-04-25T10:20:04;8.90;75.80
38938;DHT22;24727;51.974;20.868;2023-04-25T10:22:41;9.00;78.20
38938;DHT22;24727;51.974;20.868;2023-04-25T10:25:08;9.00;78.40
38938;DHT22;24727;51.974;20.868;2023-04-25T10:27:34;9.00;76.60
38938;DHT22;24727;51.974;20.868;2023-04-25T10:30:09;9.00;73.70
38938;DHT22;24727;51.974;20.868;2023-04-25T10:32:38;9.10;75.90
38938;DHT22;24727;51.974;20.868;2023-04-25T10:35:24;9.10;74.10
38938;DHT22;24727;51.974;20.868;2023-04-25T10:38:10;9.10;73.60
38938;DHT22;24727;51.974;20.868;2023-04-25T10:40:38;9.10;72.30
38938;DHT22;24727;51.974;20.868;2023-04-25T10:45:59;9.20;71.90
38938;DHT22;24727;51.974;20.868;2023-04-25T10:48:34;9.20;70.40
38938;DHT22;24727;51.974;20.868;2023-04-25T10:51:11;9.30;71.30
38938;DHT22;24727;51.974;20.868;2023-04-25T10:53:38;9.30;69.80
38938;DHT22;24727;51.974;20.868;2023-04-25T11:01:39;9.40;67.10
38938;DHT22;24727;51.974;20.868;2023-04-25T11:04:05;9.50;70.00
38938;DHT22;24727;51.974;20.868;2023-04-25T11:06:46;9.50;67.50
38938;DHT22;24727;51.974;20.868;2023-04-25T11:09:17;9.60;65.00
38938;DHT22;24727;51.974;20.868;2023-04-25T11:11:54;9.60;67.50
38938;DHT22;24727;51.974;20.868;2023-04-25T11:14:21;9.60;62.00
38938;DHT22;24727;51.974;20.868;2023-04-25T11:16:57;9.60;60.30
38938;DHT22;24727;51.974;20.868;2023-04-25T11:19:25;9.60;55.70
38938;DHT22;24727;51.974;20.868;2023-04-25T11:21:58;9.60;56.80
38938;DHT22;24727;51.974;20.868;2023-04-25T11:24:33;9.70;59.00
38938;DHT22;24727;51.974;20.868;2023-04-25T11:27:03;9.70;58.10
38938;DHT22;24727;51.974;20.868;2023-04-25T11:29:33;9.60;41.20
38938;DHT22;24727;51.974;20.868;2023-04-25T11:32:02;9.60;1.00
38938;DHT22;24727;51.974;20.868;2023-04-25T11:34:29;9.60;1.00
38938;DHT22;24727;51.974;20.868;2023-04-25T11:36:59;9.60;1.00
38938;DHT22;24727;51.974;20.868;2023-04-25T11:39:27;9.60;1.00
38938;DHT22;24727;51.974;20.868;2023-04-25T11:41:55;9.60;1.00
38938;DHT22;24727;51.974;20.868;2023-04-25T11:44:22;9.60;1.00
38938;DHT22;24727;51.974;20.868;2023-04-25T11:46:51;9.60;1.00
38938;DHT22;24727;51.974;20.868;2023-04-25T11:49:17;9.70;1.00
38938;DHT22;24727;51.974;20.868;2023-04-25T11:51:47;9.70;1.00
38938;DHT22;24727;51.974;20.868;2023-04-25T11:54:15;9.70;1.00
38938;DHT22;24727;51.974;20.868;2023-04-25T11:56:43;9.80;1.00
38938;DHT22;24727;51.974;20.868;2023-04-25T11:59:09;9.70;1.00
38938;DHT22;24727;51.974;20.868;2023-04-25T12:01:37;9.80;1.00
38938;DHT22;24727;51.974;20.868;2023-04-25T12:04:23;9.80;1.00
38938;DHT22;24727;51.974;20.868;2023-04-25T12:06:53;9.80;1.00
38938;DHT22;24727;51.974;20.868;2023-04-25T12:09:31;9.80;1.00
38938;DHT22;24727;51.974;20.868;2023-04-25T12:12:00;9.80;1.00
38938;DHT22;24727;51.974;20.868;2023-04-25T12:14:47;9.80;1.00
38938;DHT22;24727;51.974;20.868;2023-04-25T12:17:17;9.80;1.00
38938;DHT22;24727;51.974;20.868;2023-04-25T12:19:43;9.80;1.00
38938;DHT22;24727;51.974;20.868;2023-04-25T12:22:23;9.80;1.00
38938;DHT22;24727;51.974;20.868;2023-04-25T12:24:50;9.90;1.00
38938;DHT22;24727;51.974;20.868;2023-04-25T12:27:17;9.90;1.00
38938;DHT22;24727;51.974;20.868;2023-04-25T12:29:55;9.90;1.00
38938;DHT22;24727;51.974;20.868;2023-04-25T12:32:22;9.90;1.00
38938;DHT22;24727;51.974;20.868;2023-04-25T12:34:48;9.90;1.00
38938;DHT22;24727;51.974;20.868;2023-04-25T12:37:18;9.90;1.00
38938;DHT22;24727;51.974;20.868;2023-04-25T12:39:46;9.90;1.00
38938;DHT22;24727;51.974;20.868;2023-04-25T12:42:14;9.90;1.00
38938;DHT22;24727;51.974;20.868;2023-04-25T12:44:41;9.80;1.00
38938;DHT22;24727;51.974;20.868;2023-04-25T12:47:07;9.80;1.00
38938;DHT22;24727;51.974;20.868;2023-04-25T12:49:33;9.80;1.00
38938;DHT22;24727;51.974;20.868;2023-04-25T12:51:59;9.70;1.00
38938;DHT22;24727;51.974;20.868;2023-04-25T12:54:25;9.70;1.00
38938;DHT22;24727;51.974;20.868;2023-04-25T12:56:52;9.60;1.00
38938;DHT22;24727;51.974;20.868;2023-04-25T12:59:18;9.60;1.00
38938;DHT22;24727;51.974;20.868;2023-04-25T13:01:45;9.60;1.00
38938;DHT22;24727;51.974;20.868;2023-04-25T13:04:11;9.50;1.00
38938;DHT22;24727;51.974;20.868;2023-04-25T13:06:37;9.50;1.00
38938;DHT22;24727;51.974;20.868;2023-04-25T13:09:04;9.50;1.00
38938;DHT22;24727;51.974;20.868;2023-04-25T13:11:30;9.60;1.00
38938;DHT22;24727;51.974;20.868;2023-04-25T13:13:57;9.60;1.00
38938;DHT22;24727;51.974;20.868;2023-04-25T13:16:24;9.60;1.00
38938;DHT22;24727;51.974;20.868;2023-04-25T13:18:50;9.60;1.00
38938;DHT22;24727;51.974;20.868;2023-04-25T13:21:16;9.60;1.00
38938;DHT22;24727;51.974;20.868;2023-04-25T13:23:43;9.70;1.00
38938;DHT22;24727;51.974;20.868;2023-04-25T13:26:10;9.70;1.00
38938;DHT22;24727;51.974;20.868;2023-04-25T13:28:44;9.50;1.00
38938;DHT22;24727;51.974;20.868;2023-04-25T13:31:11;9.40;1.00
38938;DHT22;24727;51.974;20.868;2023-04-25T13:33:37;9.40;1.00
38938;DHT22;24727;51.974;20.868;2023-04-25T13:36:03;9.60;1.00
38938;DHT22;24727;51.974;20.868;2023-04-25T13:38:30;9.50;1.00
38938;DHT22;24727;51.974;20.868;2023-04-25T13:40:56;9.40;1.00
38938;DHT22;24727;51.974;20.868;2023-04-25T13:43:22;9.40;1.00
38938;DHT22;24727;51.974;20.868;2023-04-25T13:45:49;9.50;1.00
38938;DHT22;24727;51.974;20.868;2023-04-25T13:48:16;9.60;1.00
38938;DHT22;24727;51.974;20.868;2023-04-25T13:50:42;9.60;1.00
38938;DHT22;24727;51.974;20.868;2023-04-25T13:53:08;9.60;1.00
38938;DHT22;24727;51.974;20.868;2023-04-25T13:55:35;9.80;1.00
38938;DHT22;24727;51.974;20.868;2023-04-25T13:58:03;9.80;1.00
38938;DHT22;24727;51.974;20.868;2023-04-25T14:00:36;9.70;1.00
38938;DHT22;24727;51.974;20.868;2023-04-25T14:03:04;9.60;1.00
38938;DHT22;24727;51.974;20.868;2023-04-25T14:05:36;9.60;1.00
38938;DHT22;24727;51.974;20.868;2023-04-25T14:08:07;9.60;1.00
38938;DHT22;24727;51.974;20.868;2023-04-25T14:10:34;9.60;1.00
38938;DHT22;24727;51.974;20.868;2023-04-25T14:13:01;9.50;1.00
38938;DHT22;24727;51.974;20.868;2023-04-25T14:15:29;9.40;1.00
38938;DHT22;24727;51.974;20.868;2023-04-25T14:18:02;9.40;1.00
38938;DHT22;24727;51.974;20.868;2023-04-25T14:20:29;9.30;1.00
38938;DHT22;24727;51.974;20.868;2023-04-25T14:22:56;9.30;1.00
38938;DHT22;24727;51.974;20.868;2023-04-25T14:25:24;9.20;1.00
38938;DHT22;24727;51.974;20.868;2023-04-25T14:27:51;9.20;1.00
38938;DHT22;24727;51.974;20.868;2023-04-25T14:30:18;9.30;1.00
38938;DHT22;24727;51.974;20.868;2023-04-25T14:32:48;9.30;1.00
38938;DHT22;24727;51.974;20.868;2023-04-25T14:35:15;9.30;1.00
38938;DHT22;24727;51.974;20.868;2023-04-25T14:37:41;9.30;5.80
38938;DHT22;24727;51.974;20.868;2023-04-25T14:40:08;9.30;12.80
38938;DHT22;24727;51.974;20.868;2023-04-25T14:42:36;9.20;21.30
38938;DHT22;24727;51.974;20.868;2023-04-25T14:45:07;9.10;29.20
38938;DHT22;24727;51.974;20.868;2023-04-25T14:47:33;9.20;43.00
38938;DHT22;24727;51.974;20.868;2023-04-25T14:49:59;9.10;46.00
38938;DHT22;24727;51.974;20.868;2023-04-25T14:52:25;8.90;3.40
38938;DHT22;24727;51.974;20.868;2023-04-25T14:54:53;9.00;5.20
38938;DHT22;24727;51.974;20.868;2023-04-25T14:57:22;8.90;1.00
38938;DHT22;24727;51.974;20.868;2023-04-25T14:59:50;8.90;1.00
38938;DHT22;24727;51.974;20.868;2023-04-25T15:02:16;8.90;1.00
38938;DHT22;24727;51.974;20.868;2023-04-25T15:04:44;8.90;1.00
38938;DHT22;24727;51.974;20.868;2023-04-25T15:07:12;8.90;1.00
38938;DHT22;24727;51.974;20.868;2023-04-25T15:09:38;8.80;1.00
38938;DHT22;24727;51.974;20.868;2023-04-25T15:12:04;8.80;1.00
38938;DHT22;24727;51.974;20.868;2023-04-25T15:14:32;8.80;1.00
38938;DHT22;24727;51.974;20.868;2023-04-25T15:17:00;8.80;1.00
38938;DHT22;24727;51.974;20.868;2023-04-25T15:19:27;8.70;1.00
38938;DHT22;24727;51.974;20.868;2023-04-25T15:21:52;8.70;1.00
38938;DHT22;24727;51.974;20.868;2023-04-25T15:24:19;8.60;1.00
38938;DHT22;24727;51.974;20.868;2023-04-25T15:26:45;8.60;1.00
38938;DHT22;24727;51.974;20.868;2023-04-25T15:29:11;8.50;1.00
38938;DHT22;24727;51.974;20.868;2023-04-25T15:31:37;8.60;1.00
38938;DHT22;24727;51.974;20.868;2023-04-25T15:34:05;8.60;1.00
38938;DHT22;24727;51.974;20.868;2023-04-25T15:36:31;8.50;1.00
38938;DHT22;24727;51.974;20.868;2023-04-25T15:38:57;8.60;4.00
38938;DHT22;24727;51.974;20.868;2023-04-25T15:41:25;8.50;19.10
38938;DHT22;24727;51.974;20.868;2023-04-25T15:43:52;8.40;12.80
38938;DHT22;24727;51.974;20.868;2023-04-25T15:46:20;8.40;4.10